sensor_id;sensor_type;location;lat;lon;timestamp;P1;durP1;ratioP1;P2;durP2;ratioP2
1436;SDS011;712;51.026;13.792;2023-05-07T00:01:00;14.03;;;8.03;;
1436;SDS011;712;51.026;13.792;2023-05-07T00:03:26;13.98;;;7.75;;
1436;SDS011;712;51.026;13.792;2023-05-07T00:05:51;14.00;;;8.05;;
1436;SDS011;712;51.026;13.792;2023-05-07T00:08:17;16.95;;;8.48;;
1436;SDS011;712;51.026;13.792;2023-05-07T00:10:43;15.00;;;8.87;;
1436;SDS011;712;51.026;13.792;2023-05-07T00:13:08;15.23;;;7.80;;
1436;SDS011;712;51.026;13.792;2023-05-07T00:15:33;15.52;;;8.38;;
1436;SDS011;712;51.026;13.792;2023-05-07T00:17:58;13.48;;;7.63;;
1436;SDS011;712;51.026;13.792;2023-05-07T00:20:24;13.50;;;7.65;;
1436;SDS011;712;51.026;13.792;2023-05-07T00:22:49;13.53;;;7.80;;
1436;SDS011;712;51.026;13.792;2023-05-07T00:25:14;15.20;;;8.27;;
1436;SDS011;712;51.026;13.792;2023-05-07T00:27:39;12.70;;;7.70;;
1436;SDS011;712;51.026;13.792;2023-05-07T00:30:05;13.07;;;7.70;;
1436;SDS011;712;51.026;13.792;2023-05-07T00:32:31;14.93;;;8.40;;
1436;SDS011;712;51.026;13.792;2023-05-07T00:34:56;14.60;;;7.97;;
1436;SDS011;712;51.026;13.792;2023-05-07T00:37:21;15.63;;;9.13;;
1436;SDS011;712;51.026;13.792;2023-05-07T00:39:46;15.85;;;8.43;;
1436;SDS011;712;51.026;13.792;2023-05-07T00:42:11;14.43;;;8.27;;
1436;SDS011;712;51.026;13.792;2023-05-07T00:44:36;16.63;;;8.50;;
1436;SDS011;712;51.026;13.792;2023-05-07T00:47:02;14.87;;;8.47;;
1436;SDS011;712;51.026;13.792;2023-05-07T00:51:53;17.58;;;9.40;;
1436;SDS011;712;51.026;13.792;2023-05-07T00:54:18;17.07;;;9.07;;
1436;SDS011;712;51.026;13.792;2023-05-07T00:56:44;19.38;;;9.90;;
1436;SDS011;712;51.026;13.792;2023-05-07T00:59:10;17.95;;;9.55;;
1436;SDS011;712;51.026;13.792;2023-05-07T01:01:35;17.17;;;9.80;;
1436;SDS011;712;51.026;13.792;2023-05-07T01:04:01;17.95;;;9.93;;
1436;SDS011;712;51.026;13.792;2023-05-07T01:06:26;17.27;;;9.40;;
1436;SDS011;712;51.026;13.792;2023-05-07T01:08:52;18.23;;;9.63;;
1436;SDS011;712;51.026;13.792;2023-05-07T01:11:21;19.65;;;9.82;;
1436;SDS011;712;51.026;13.792;2023-05-07T01:13:46;18.27;;;10.00;;
1436;SDS011;712;51.026;13.792;2023-05-07T01:16:12;16.92;;;9.48;;
1436;SDS011;712;51.026;13.792;2023-05-07T01:18:37;18.50;;;9.37;;
1436;SDS011;712;51.026;13.792;2023-05-07T01:21:03;16.67;;;9.30;;
1436;SDS011;712;51.026;13.792;2023-05-07T01:25:54;16.35;;;8.32;;
1436;SDS011;712;51.026;13.792;2023-05-07T01:28:19;17.02;;;8.88;;
1436;SDS011;712;51.026;13.792;2023-05-07T01:30:46;15.97;;;8.43;;
1436;SDS011;712;51.026;13.792;2023-05-07T01:33:13;16.38;;;8.57;;
1436;SDS011;712;51.026;13.792;2023-05-07T01:35:41;17.70;;;9.23;;
1436;SDS011;712;51.026;13.792;2023-05-07T01:38:07;16.85;;;8.57;;
1436;SDS011;712;51.026;13.792;2023-05-07T01:40:33;15.70;;;8.88;;
1436;SDS011;712;51.026;13.792;2023-05-07T01:42:59;17.08;;;9.57;;
1436;SDS011;712;51.026;13.792;2023-05-07T01:45:24;17.88;;;8.98;;
1436;SDS011;712;51.026;13.792;2023-05-07T01:47:50;15.73;;;9.30;;
1436;SDS011;712;51.026;13.792;2023-05-07T01:50:16;15.43;;;8.88;;
1436;SDS011;712;51.026;13.792;2023-05-07T01:52:43;15.38;;;8.73;;
1436;SDS011;712;51.026;13.792;2023-05-07T01:55:08;15.23;;;9.07;;
1436;SDS011;712;51.026;13.792;2023-05-07T01:57:33;15.80;;;8.50;;
1436;SDS011;712;51.026;13.792;2023-05-07T01:59:59;15.67;;;8.87;;
1436;SDS011;712;51.026;13.792;2023-05-07T02:02:24;15.63;;;9.27;;
1436;SDS011;712;51.026;13.792;2023-05-07T02:04:49;15.73;;;9.43;;
1436;SDS011;712;51.026;13.792;2023-05-07T02:07:14;14.67;;;8.93;;
1436;SDS011;712;51.026;13.792;2023-05-07T02:09:39;18.38;;;8.93;;
1436;SDS011;712;51.026;13.792;2023-05-07T02:12:04;17.50;;;9.18;;
1436;SDS011;712;51.026;13.792;2023-05-07T02:14:30;15.07;;;8.93;;
1436;SDS011;712;51.026;13.792;2023-05-07T02:16:55;20.23;;;10.52;;
1436;SDS011;712;51.026;13.792;2023-05-07T02:19:20;13.82;;;8.75;;
1436;SDS011;712;51.026;13.792;2023-05-07T02:21:46;16.10;;;9.43;;
1436;SDS011;712;51.026;13.792;2023-05-07T02:24:11;14.23;;;8.90;;
1436;SDS011;712;51.026;13.792;2023-05-07T02:26:36;14.00;;;8.77;;
1436;SDS011;712;51.026;13.792;2023-05-07T02:29:01;14.90;;;8.80;;
1436;SDS011;712;51.026;13.792;2023-05-07T02:31:26;15.55;;;9.43;;
1436;SDS011;712;51.026;13.792;2023-05-07T02:33:51;17.13;;;10.13;;
1436;SDS011;712;51.026;13.792;2023-05-07T02:36:17;18.50;;;10.33;;
1436;SDS011;712;51.026;13.792;2023-05-07T02:38:42;15.70;;;9.73;;
1436;SDS011;712;51.026;13.792;2023-05-07T02:41:07;15.95;;;9.73;;
1436;SDS011;712;51.026;13.792;2023-05-07T02:43:32;16.45;;;9.30;;
1436;SDS011;712;51.026;13.792;2023-05-07T02:46:07;18.47;;;9.53;;
1436;SDS011;712;51.026;13.792;2023-05-07T02:48:33;14.20;;;7.70;;
1436;SDS011;712;51.026;13.792;2023-05-07T02:50:58;15.43;;;9.05;;
1436;SDS011;712;51.026;13.792;2023-05-07T02:53:24;15.30;;;8.52;;
1436;SDS011;712;51.026;13.792;2023-05-07T02:55:51;14.65;;;8.52;;
1436;SDS011;712;51.026;13.792;2023-05-07T02:58:16;12.30;;;7.28;;
1436;SDS011;712;51.026;13.792;2023-05-07T03:00:41;13.45;;;7.53;;
1436;SDS011;712;51.026;13.792;2023-05-07T03:03:06;11.67;;;7.10;;
1436;SDS011;712;51.026;13.792;2023-05-07T03:05:31;13.48;;;7.57;;
1436;SDS011;712;51.026;13.792;2023-05-07T03:07:57;11.75;;;6.35;;
1436;SDS011;712;51.026;13.792;2023-05-07T03:10:22;11.50;;;6.30;;
1436;SDS011;712;51.026;13.792;2023-05-07T03:12:47;13.10;;;6.65;;
1436;SDS011;712;51.026;13.792;2023-05-07T03:15:12;11.60;;;6.28;;
1436;SDS011;712;51.026;13.792;2023-05-07T03:17:37;12.68;;;6.60;;
1436;SDS011;712;51.026;13.792;2023-05-07T03:20:03;13.43;;;6.38;;
1436;SDS011;712;51.026;13.792;2023-05-07T03:22:28;11.40;;;6.22;;
1436;SDS011;712;51.026;13.792;2023-05-07T03:24:53;13.27;;;7.05;;
1436;SDS011;712;51.026;13.792;2023-05-07T03:27:19;11.13;;;6.60;;
1436;SDS011;712;51.026;13.792;2023-05-07T03:29:44;12.23;;;6.43;;
1436;SDS011;712;51.026;13.792;2023-05-07T03:32:09;12.37;;;6.50;;
1436;SDS011;712;51.026;13.792;2023-05-07T03:34:34;14.40;;;7.40;;
1436;SDS011;712;51.026;13.792;2023-05-07T03:37:00;13.40;;;7.57;;
1436;SDS011;712;51.026;13.792;2023-05-07T03:39:25;13.67;;;7.03;;
1436;SDS011;712;51.026;13.792;2023-05-07T03:41:50;15.30;;;7.60;;
1436;SDS011;712;51.026;13.792;2023-05-07T03:44:15;15.43;;;7.40;;
1436;SDS011;712;51.026;13.792;2023-05-07T03:46:40;17.07;;;8.40;;
1436;SDS011;712;51.026;13.792;2023-05-07T03:49:05;16.15;;;8.30;;
1436;SDS011;712;51.026;13.792;2023-05-07T03:51:31;16.30;;;8.10;;
1436;SDS011;712;51.026;13.792;2023-05-07T03:53:56;14.48;;;7.95;;
1436;SDS011;712;51.026;13.792;2023-05-07T03:56:22;16.45;;;8.35;;
1436;SDS011;712;51.026;13.792;2023-05-07T03:58:47;16.87;;;8.57;;
1436;SDS011;712;51.026;13.792;2023-05-07T04:01:12;15.75;;;8.38;;
1436;SDS011;712;51.026;13.792;2023-05-07T04:03:37;15.87;;;8.47;;
1436;SDS011;712;51.026;13.792;2023-05-07T04:06:02;16.48;;;8.48;;
1436;SDS011;712;51.026;13.792;2023-05-07T04:08:27;16.80;;;8.63;;
1436;SDS011;712;51.026;13.792;2023-05-07T04:10:56;19.87;;;10.10;;
1436;SDS011;712;51.026;13.792;2023-05-07T04:13:21;17.52;;;8.85;;
1436;SDS011;712;51.026;13.792;2023-05-07T04:15:46;17.83;;;9.20;;
1436;SDS011;712;51.026;13.792;2023-05-07T04:18:13;16.83;;;8.85;;
1436;SDS011;712;51.026;13.792;2023-05-07T04:20:39;15.53;;;7.93;;
1436;SDS011;712;51.026;13.792;2023-05-07T04:23:04;16.07;;;8.60;;
1436;SDS011;712;51.026;13.792;2023-05-07T04:25:29;16.30;;;7.83;;
1436;SDS011;712;51.026;13.792;2023-05-07T04:27:54;15.97;;;8.40;;
1436;SDS011;712;51.026;13.792;2023-05-07T04:30:20;17.08;;;8.30;;
1436;SDS011;712;51.026;13.792;2023-05-07T04:32:45;14.93;;;8.50;;
1436;SDS011;712;51.026;13.792;2023-05-07T04:35:10;17.73;;;9.00;;
1436;SDS011;712;51.026;13.792;2023-05-07T04:37:36;18.67;;;9.60;;
1436;SDS011;712;51.026;13.792;2023-05-07T04:40:01;18.40;;;9.90;;
1436;SDS011;712;51.026;13.792;2023-05-07T04:42:26;16.90;;;8.50;;
1436;SDS011;712;51.026;13.792;2023-05-07T04:44:52;17.27;;;8.57;;
1436;SDS011;712;51.026;13.792;2023-05-07T04:47:18;19.17;;;8.70;;
1436;SDS011;712;51.026;13.792;2023-05-07T04:49:43;16.00;;;9.45;;
1436;SDS011;712;51.026;13.792;2023-05-07T04:52:08;16.17;;;8.43;;
1436;SDS011;712;51.026;13.792;2023-05-07T04:54:33;14.10;;;7.97;;
1436;SDS011;712;51.026;13.792;2023-05-07T04:56:58;15.38;;;8.05;;
1436;SDS011;712;51.026;13.792;2023-05-07T04:59:23;12.37;;;6.60;;
1436;SDS011;712;51.026;13.792;2023-05-07T05:01:48;12.40;;;6.13;;
1436;SDS011;712;51.026;13.792;2023-05-07T05:04:14;13.13;;;7.10;;
1436;SDS011;712;51.026;13.792;2023-05-07T05:06:39;13.90;;;7.35;;
1436;SDS011;712;51.026;13.792;2023-05-07T05:09:04;13.93;;;7.30;;
1436;SDS011;712;51.026;13.792;2023-05-07T05:11:30;14.90;;;7.30;;
1436;SDS011;712;51.026;13.792;2023-05-07T05:13:55;16.03;;;7.80;;
1436;SDS011;712;51.026;13.792;2023-05-07T05:16:20;12.95;;;6.85;;
1436;SDS011;712;51.026;13.792;2023-05-07T05:18:45;15.93;;;8.10;;
1436;SDS011;712;51.026;13.792;2023-05-07T05:21:10;15.65;;;8.45;;
1436;SDS011;712;51.026;13.792;2023-05-07T05:23:36;16.00;;;8.23;;
1436;SDS011;712;51.026;13.792;2023-05-07T05:26:01;14.50;;;7.97;;
1436;SDS011;712;51.026;13.792;2023-05-07T05:28:26;16.10;;;8.30;;
1436;SDS011;712;51.026;13.792;2023-05-07T05:30:52;15.57;;;8.20;;
1436;SDS011;712;51.026;13.792;2023-05-07T05:33:17;13.57;;;7.60;;
1436;SDS011;712;51.026;13.792;2023-05-07T05:35:42;16.25;;;8.77;;
1436;SDS011;712;51.026;13.792;2023-05-07T05:38:08;14.33;;;7.90;;
1436;SDS011;712;51.026;13.792;2023-05-07T05:40:33;13.57;;;7.87;;
1436;SDS011;712;51.026;13.792;2023-05-07T05:42:58;13.33;;;7.97;;
1436;SDS011;712;51.026;13.792;2023-05-07T05:45:23;14.57;;;7.72;;
1436;SDS011;712;51.026;13.792;2023-05-07T05:47:49;14.25;;;7.60;;
1436;SDS011;712;51.026;13.792;2023-05-07T05:50:14;13.33;;;6.50;;
1436;SDS011;712;51.026;13.792;2023-05-07T05:52:39;13.93;;;7.60;;
1436;SDS011;712;51.026;13.792;2023-05-07T05:55:05;12.95;;;6.93;;
1436;SDS011;712;51.026;13.792;2023-05-07T05:57:31;14.48;;;7.22;;
1436;SDS011;712;51.026;13.792;2023-05-07T05:59:56;13.68;;;6.50;;
1436;SDS011;712;51.026;13.792;2023-05-07T06:02:21;14.27;;;7.23;;
1436;SDS011;712;51.026;13.792;2023-05-07T06:04:46;15.77;;;7.23;;
1436;SDS011;712;51.026;13.792;2023-05-07T06:07:11;13.17;;;6.40;;
1436;SDS011;712;51.026;13.792;2023-05-07T06:09:37;10.98;;;5.60;;
1436;SDS011;712;51.026;13.792;2023-05-07T06:12:02;10.35;;;5.53;;
1436;SDS011;712;51.026;13.792;2023-05-07T06:14:27;11.93;;;5.77;;
1436;SDS011;712;51.026;13.792;2023-05-07T06:16:52;9.97;;;5.17;;
1436;SDS011;712;51.026;13.792;2023-05-07T06:19:17;11.45;;;5.50;;
1436;SDS011;712;51.026;13.792;2023-05-07T06:21:47;10.38;;;5.28;;
1436;SDS011;712;51.026;13.792;2023-05-07T06:24:13;10.80;;;5.03;;
1436;SDS011;712;51.026;13.792;2023-05-07T06:26:38;10.03;;;4.33;;
1436;SDS011;712;51.026;13.792;2023-05-07T06:29:03;9.52;;;4.82;;
1436;SDS011;712;51.026;13.792;2023-05-07T06:31:29;9.30;;;4.77;;
1436;SDS011;712;51.026;13.792;2023-05-07T06:33:54;9.75;;;4.80;;
1436;SDS011;712;51.026;13.792;2023-05-07T06:36:20;9.93;;;5.10;;
1436;SDS011;712;51.026;13.792;2023-05-07T06:38:45;9.73;;;4.93;;
1436;SDS011;712;51.026;13.792;2023-05-07T06:41:10;9.75;;;4.90;;
1436;SDS011;712;51.026;13.792;2023-05-07T06:43:35;9.15;;;5.05;;
1436;SDS011;712;51.026;13.792;2023-05-07T06:46:00;10.77;;;4.57;;
1436;SDS011;712;51.026;13.792;2023-05-07T06:48:26;9.27;;;4.60;;
1436;SDS011;712;51.026;13.792;2023-05-07T06:50:51;9.87;;;4.37;;
1436;SDS011;712;51.026;13.792;2023-05-07T06:53:16;8.80;;;4.63;;
1436;SDS011;712;51.026;13.792;2023-05-07T06:55:41;8.23;;;4.40;;
1436;SDS011;712;51.026;13.792;2023-05-07T06:58:06;9.10;;;4.87;;
1436;SDS011;712;51.026;13.792;2023-05-07T07:00:32;10.80;;;5.37;;
1436;SDS011;712;51.026;13.792;2023-05-07T07:02:57;9.50;;;5.20;;
1436;SDS011;712;51.026;13.792;2023-05-07T07:05:22;10.27;;;5.50;;
1436;SDS011;712;51.026;13.792;2023-05-07T07:07:47;10.40;;;6.07;;
1436;SDS011;712;51.026;13.792;2023-05-07T07:10:21;10.65;;;5.63;;
1436;SDS011;712;51.026;13.792;2023-05-07T07:12:46;11.15;;;5.90;;
1436;SDS011;712;51.026;13.792;2023-05-07T07:15:11;11.25;;;5.68;;
1436;SDS011;712;51.026;13.792;2023-05-07T07:17:36;13.20;;;6.30;;
1436;SDS011;712;51.026;13.792;2023-05-07T07:20:02;10.35;;;6.07;;
1436;SDS011;712;51.026;13.792;2023-05-07T07:22:27;10.82;;;5.53;;
1436;SDS011;712;51.026;13.792;2023-05-07T07:24:52;10.13;;;5.00;;
1436;SDS011;712;51.026;13.792;2023-05-07T07:27:18;9.10;;;4.80;;
1436;SDS011;712;51.026;13.792;2023-05-07T07:29:43;9.43;;;4.77;;
1436;SDS011;712;51.026;13.792;2023-05-07T07:32:08;7.97;;;4.60;;
1436;SDS011;712;51.026;13.792;2023-05-07T07:34:33;9.27;;;4.30;;
1436;SDS011;712;51.026;13.792;2023-05-07T07:36:58;9.65;;;4.72;;
1436;SDS011;712;51.026;13.792;2023-05-07T07:39:23;8.00;;;4.30;;
1436;SDS011;712;51.026;13.792;2023-05-07T07:41:48;6.82;;;4.05;;
1436;SDS011;712;51.026;13.792;2023-05-07T07:44:14;7.50;;;3.97;;
1436;SDS011;712;51.026;13.792;2023-05-07T07:46:39;7.03;;;3.87;;
1436;SDS011;712;51.026;13.792;2023-05-07T07:49:04;6.65;;;3.70;;
1436;SDS011;712;51.026;13.792;2023-05-07T07:51:29;6.80;;;3.60;;
1436;SDS011;712;51.026;13.792;2023-05-07T07:53:55;6.70;;;3.10;;
1436;SDS011;712;51.026;13.792;2023-05-07T07:56:22;6.25;;;3.17;;
1436;SDS011;712;51.026;13.792;2023-05-07T07:58:47;6.47;;;3.37;;
1436;SDS011;712;51.026;13.792;2023-05-07T08:01:12;8.50;;;3.63;;
1436;SDS011;712;51.026;13.792;2023-05-07T08:03:37;6.25;;;3.22;;
1436;SDS011;712;51.026;13.792;2023-05-07T08:06:03;6.27;;;3.37;;
1436;SDS011;712;51.026;13.792;2023-05-07T08:08:28;6.25;;;3.47;;
1436;SDS011;712;51.026;13.792;2023-05-07T08:10:53;6.72;;;3.83;;
1436;SDS011;712;51.026;13.792;2023-05-07T08:13:18;6.72;;;3.78;;
1436;SDS011;712;51.026;13.792;2023-05-07T08:15:43;6.83;;;3.70;;
1436;SDS011;712;51.026;13.792;2023-05-07T08:18:09;9.07;;;3.50;;
1436;SDS011;712;51.026;13.792;2023-05-07T08:20:34;6.30;;;3.40;;
1436;SDS011;712;51.026;13.792;2023-05-07T08:23:04;6.45;;;3.28;;
1436;SDS011;712;51.026;13.792;2023-05-07T08:25:29;6.17;;;3.43;;
1436;SDS011;712;51.026;13.792;2023-05-07T08:27:54;6.65;;;3.40;;
1436;SDS011;712;51.026;13.792;2023-05-07T08:30:19;5.97;;;3.17;;
1436;SDS011;712;51.026;13.792;2023-05-07T08:32:44;5.50;;;2.90;;
1436;SDS011;712;51.026;13.792;2023-05-07T08:35:10;6.77;;;3.50;;
1436;SDS011;712;51.026;13.792;2023-05-07T08:37:35;5.78;;;3.10;;
1436;SDS011;712;51.026;13.792;2023-05-07T08:40:00;6.43;;;3.50;;
1436;SDS011;712;51.026;13.792;2023-05-07T08:42:25;5.50;;;3.00;;
1436;SDS011;712;51.026;13.792;2023-05-07T08:44:52;6.80;;;3.58;;
1436;SDS011;712;51.026;13.792;2023-05-07T08:47:19;6.88;;;3.67;;
1436;SDS011;712;51.026;13.792;2023-05-07T08:49:45;5.40;;;2.72;;
1436;SDS011;712;51.026;13.792;2023-05-07T08:52:11;6.13;;;3.40;;
1436;SDS011;712;51.026;13.792;2023-05-07T08:54:36;7.65;;;3.60;;
1436;SDS011;712;51.026;13.792;2023-05-07T08:57:02;6.50;;;3.72;;
1436;SDS011;712;51.026;13.792;2023-05-07T08:59:27;8.40;;;4.53;;
1436;SDS011;712;51.026;13.792;2023-05-07T09:01:52;8.57;;;4.47;;
1436;SDS011;712;51.026;13.792;2023-05-07T09:04:17;7.73;;;4.27;;
1436;SDS011;712;51.026;13.792;2023-05-07T09:06:43;7.95;;;4.45;;
1436;SDS011;712;51.026;13.792;2023-05-07T09:09:08;7.93;;;4.50;;
1436;SDS011;712;51.026;13.792;2023-05-07T09:11:33;7.97;;;4.18;;
1436;SDS011;712;51.026;13.792;2023-05-07T09:13:58;7.53;;;4.27;;
1436;SDS011;712;51.026;13.792;2023-05-07T09:16:26;7.72;;;4.13;;
1436;SDS011;712;51.026;13.792;2023-05-07T09:18:52;9.07;;;4.97;;
1436;SDS011;712;51.026;13.792;2023-05-07T09:21:18;8.65;;;4.75;;
1436;SDS011;712;51.026;13.792;2023-05-07T09:23:43;8.77;;;4.70;;
1436;SDS011;712;51.026;13.792;2023-05-07T09:26:08;10.90;;;5.20;;
1436;SDS011;712;51.026;13.792;2023-05-07T09:28:39;9.90;;;5.25;;
1436;SDS011;712;51.026;13.792;2023-05-07T09:31:06;8.85;;;4.90;;
1436;SDS011;712;51.026;13.792;2023-05-07T09:33:31;9.90;;;5.17;;
1436;SDS011;712;51.026;13.792;2023-05-07T09:35:56;8.77;;;4.63;;
1436;SDS011;712;51.026;13.792;2023-05-07T09:38:21;8.73;;;4.75;;
1436;SDS011;712;51.026;13.792;2023-05-07T09:40:46;7.83;;;4.27;;
1436;SDS011;712;51.026;13.792;2023-05-07T09:43:12;9.17;;;4.90;;
1436;SDS011;712;51.026;13.792;2023-05-07T09:45:38;8.50;;;4.45;;
1436;SDS011;712;51.026;13.792;2023-05-07T09:48:04;7.00;;;4.23;;
1436;SDS011;712;51.026;13.792;2023-05-07T09:50:31;7.47;;;4.15;;
1436;SDS011;712;51.026;13.792;2023-05-07T09:52:57;6.75;;;4.22;;
1436;SDS011;712;51.026;13.792;2023-05-07T09:55:23;7.88;;;3.95;;
1436;SDS011;712;51.026;13.792;2023-05-07T09:57:51;8.73;;;4.63;;
1436;SDS011;712;51.026;13.792;2023-05-07T10:00:18;8.60;;;4.07;;
1436;SDS011;712;51.026;13.792;2023-05-07T10:02:44;9.15;;;5.55;;
1436;SDS011;712;51.026;13.792;2023-05-07T10:05:13;8.38;;;5.03;;
1436;SDS011;712;51.026;13.792;2023-05-07T10:07:39;10.27;;;4.90;;
1436;SDS011;712;51.026;13.792;2023-05-07T10:10:04;8.00;;;4.90;;
1436;SDS011;712;51.026;13.792;2023-05-07T10:12:30;9.30;;;4.93;;
1436;SDS011;712;51.026;13.792;2023-05-07T10:15:02;8.05;;;4.78;;
1436;SDS011;712;51.026;13.792;2023-05-07T10:17:27;8.50;;;4.85;;
1436;SDS011;712;51.026;13.792;2023-05-07T10:19:53;8.80;;;5.17;;
1436;SDS011;712;51.026;13.792;2023-05-07T10:22:18;9.23;;;5.10;;
1436;SDS011;712;51.026;13.792;2023-05-07T10:24:44;8.05;;;5.10;;
1436;SDS011;712;51.026;13.792;2023-05-07T10:27:10;7.43;;;4.50;;
1436;SDS011;712;51.026;13.792;2023-05-07T10:29:39;8.10;;;4.88;;
1436;SDS011;712;51.026;13.792;2023-05-07T10:32:19;8.43;;;4.95;;
1436;SDS011;712;51.026;13.792;2023-05-07T10:34:47;7.57;;;4.68;;
1436;SDS011;712;51.026;13.792;2023-05-07T10:37:13;8.45;;;5.47;;
1436;SDS011;712;51.026;13.792;2023-05-07T10:39:38;7.83;;;4.80;;
1436;SDS011;712;51.026;13.792;2023-05-07T10:42:07;8.05;;;5.00;;
1436;SDS011;712;51.026;13.792;2023-05-07T10:44:33;8.43;;;5.07;;
1436;SDS011;712;51.026;13.792;2023-05-07T10:47:07;7.40;;;4.32;;
1436;SDS011;712;51.026;13.792;2023-05-07T10:49:34;6.95;;;4.72;;
1436;SDS011;712;51.026;13.792;2023-05-07T10:54:37;7.72;;;5.13;;
1436;SDS011;712;51.026;13.792;2023-05-07T10:59:47;9.20;;;4.78;;
1436;SDS011;712;51.026;13.792;2023-05-07T11:02:12;7.90;;;4.63;;
1436;SDS011;712;51.026;13.792;2023-05-07T11:04:39;7.55;;;4.80;;
1436;SDS011;712;51.026;13.792;2023-05-07T11:12:15;7.70;;;4.80;;
1436;SDS011;712;51.026;13.792;2023-05-07T11:17:06;7.43;;;4.33;;
1436;SDS011;712;51.026;13.792;2023-05-07T11:19:50;6.68;;;4.20;;
1436;SDS011;712;51.026;13.792;2023-05-07T11:25:00;6.88;;;4.18;;
1436;SDS011;712;51.026;13.792;2023-05-07T11:27:26;8.15;;;4.60;;
1436;SDS011;712;51.026;13.792;2023-05-07T11:29:51;7.07;;;4.38;;
1436;SDS011;712;51.026;13.792;2023-05-07T11:32:22;6.30;;;3.97;;
1436;SDS011;712;51.026;13.792;2023-05-07T11:34:47;6.90;;;4.50;;
1436;SDS011;712;51.026;13.792;2023-05-07T11:37:21;7.55;;;4.47;;
1436;SDS011;712;51.026;13.792;2023-05-07T11:39:46;7.35;;;4.53;;
1436;SDS011;712;51.026;13.792;2023-05-07T11:42:30;8.17;;;4.30;;
1436;SDS011;712;51.026;13.792;2023-05-07T11:44:55;8.70;;;4.43;;
1436;SDS011;712;51.026;13.792;2023-05-07T11:47:21;7.63;;;4.70;;
1436;SDS011;712;51.026;13.792;2023-05-07T11:49:47;8.10;;;4.60;;
1436;SDS011;712;51.026;13.792;2023-05-07T11:52:13;8.32;;;5.10;;
1436;SDS011;712;51.026;13.792;2023-05-07T11:54:38;7.20;;;4.63;;
1436;SDS011;712;51.026;13.792;2023-05-07T11:57:03;7.77;;;4.83;;
1436;SDS011;712;51.026;13.792;2023-05-07T11:59:28;13.30;;;7.80;;
1436;SDS011;712;51.026;13.792;2023-05-07T12:01:57;8.30;;;4.80;;
1436;SDS011;712;51.026;13.792;2023-05-07T12:04:22;7.93;;;4.07;;
1436;SDS011;712;51.026;13.792;2023-05-07T12:06:48;6.80;;;4.13;;
1436;SDS011;712;51.026;13.792;2023-05-07T12:09:13;8.13;;;4.30;;
1436;SDS011;712;51.026;13.792;2023-05-07T12:11:38;7.60;;;4.68;;
1436;SDS011;712;51.026;13.792;2023-05-07T12:14:05;8.80;;;4.95;;
1436;SDS011;712;51.026;13.792;2023-05-07T12:16:30;7.45;;;4.80;;
1436;SDS011;712;51.026;13.792;2023-05-07T12:18:55;7.23;;;4.70;;
1436;SDS011;712;51.026;13.792;2023-05-07T12:21:21;7.45;;;4.53;;
1436;SDS011;712;51.026;13.792;2023-05-07T12:23:46;7.45;;;4.57;;
1436;SDS011;712;51.026;13.792;2023-05-07T12:26:12;7.63;;;4.80;;
1436;SDS011;712;51.026;13.792;2023-05-07T12:28:38;7.60;;;4.50;;
1436;SDS011;712;51.026;13.792;2023-05-07T12:31:06;8.43;;;4.93;;
1436;SDS011;712;51.026;13.792;2023-05-07T12:33:31;7.47;;;4.60;;
1436;SDS011;712;51.026;13.792;2023-05-07T12:35:57;6.85;;;4.18;;
1436;SDS011;712;51.026;13.792;2023-05-07T12:38:23;7.45;;;4.63;;
1436;SDS011;712;51.026;13.792;2023-05-07T12:40:48;7.57;;;4.63;;
1436;SDS011;712;51.026;13.792;2023-05-07T12:45:42;7.78;;;4.53;;
1436;SDS011;712;51.026;13.792;2023-05-07T12:48:09;7.15;;;4.20;;
1436;SDS011;712;51.026;13.792;2023-05-07T12:50:34;6.80;;;4.28;;
1436;SDS011;712;51.026;13.792;2023-05-07T12:52:59;6.73;;;4.07;;
1436;SDS011;712;51.026;13.792;2023-05-07T12:55:25;7.13;;;4.10;;
1436;SDS011;712;51.026;13.792;2023-05-07T12:57:50;8.50;;;4.25;;
1436;SDS011;712;51.026;13.792;2023-05-07T13:00:16;6.68;;;4.28;;
1436;SDS011;712;51.026;13.792;2023-05-07T13:02:43;7.47;;;4.47;;
1436;SDS011;712;51.026;13.792;2023-05-07T13:05:11;6.32;;;4.30;;
1436;SDS011;712;51.026;13.792;2023-05-07T13:07:36;6.97;;;4.07;;
1436;SDS011;712;51.026;13.792;2023-05-07T13:10:02;8.65;;;4.18;;
1436;SDS011;712;51.026;13.792;2023-05-07T13:12:27;7.18;;;3.67;;
1436;SDS011;712;51.026;13.792;2023-05-07T13:14:52;6.27;;;4.10;;
1436;SDS011;712;51.026;13.792;2023-05-07T13:17:18;6.15;;;3.92;;
1436;SDS011;712;51.026;13.792;2023-05-07T13:19:43;6.80;;;4.32;;
1436;SDS011;712;51.026;13.792;2023-05-07T13:22:08;7.03;;;4.13;;
1436;SDS011;712;51.026;13.792;2023-05-07T13:24:33;8.15;;;4.38;;
1436;SDS011;712;51.026;13.792;2023-05-07T13:26:59;6.80;;;3.95;;
1436;SDS011;712;51.026;13.792;2023-05-07T13:29:24;7.60;;;4.28;;
1436;SDS011;712;51.026;13.792;2023-05-07T13:31:54;7.55;;;4.35;;
1436;SDS011;712;51.026;13.792;2023-05-07T13:34:20;6.95;;;4.00;;
1436;SDS011;712;51.026;13.792;2023-05-07T13:36:45;6.27;;;3.57;;
1436;SDS011;712;51.026;13.792;2023-05-07T13:39:10;6.75;;;4.00;;
1436;SDS011;712;51.026;13.792;2023-05-07T13:41:35;7.10;;;4.10;;
1436;SDS011;712;51.026;13.792;2023-05-07T13:44:00;7.50;;;4.10;;
1436;SDS011;712;51.026;13.792;2023-05-07T13:46:25;6.32;;;3.90;;
1436;SDS011;712;51.026;13.792;2023-05-07T13:48:50;7.03;;;4.00;;
1436;SDS011;712;51.026;13.792;2023-05-07T13:51:16;6.07;;;3.70;;
1436;SDS011;712;51.026;13.792;2023-05-07T13:53:41;7.03;;;3.83;;
1436;SDS011;712;51.026;13.792;2023-05-07T13:56:06;6.03;;;3.72;;
1436;SDS011;712;51.026;13.792;2023-05-07T13:58:32;6.47;;;4.00;;
1436;SDS011;712;51.026;13.792;2023-05-07T14:00:57;5.67;;;3.57;;
1436;SDS011;712;51.026;13.792;2023-05-07T14:03:22;6.20;;;3.30;;
1436;SDS011;712;51.026;13.792;2023-05-07T14:05:47;5.90;;;3.60;;
1436;SDS011;712;51.026;13.792;2023-05-07T14:08:12;6.10;;;3.50;;
1436;SDS011;712;51.026;13.792;2023-05-07T14:10:39;6.15;;;3.03;;
1436;SDS011;712;51.026;13.792;2023-05-07T14:13:04;5.00;;;3.00;;
1436;SDS011;712;51.026;13.792;2023-05-07T14:15:29;5.50;;;3.40;;
1436;SDS011;712;51.026;13.792;2023-05-07T14:17:54;5.32;;;3.05;;
1436;SDS011;712;51.026;13.792;2023-05-07T14:20:19;5.10;;;3.00;;
1436;SDS011;712;51.026;13.792;2023-05-07T14:22:45;4.65;;;2.53;;
1436;SDS011;712;51.026;13.792;2023-05-07T14:25:10;5.70;;;3.43;;
1436;SDS011;712;51.026;13.792;2023-05-07T14:27:35;5.83;;;2.60;;
1436;SDS011;712;51.026;13.792;2023-05-07T14:30:00;5.50;;;2.92;;
1436;SDS011;712;51.026;13.792;2023-05-07T14:32:26;5.17;;;2.70;;
1436;SDS011;712;51.026;13.792;2023-05-07T14:34:51;5.00;;;2.70;;
1436;SDS011;712;51.026;13.792;2023-05-07T14:37:16;5.00;;;2.50;;
1436;SDS011;712;51.026;13.792;2023-05-07T14:39:41;5.93;;;2.80;;
1436;SDS011;712;51.026;13.792;2023-05-07T14:42:06;5.03;;;2.60;;
1436;SDS011;712;51.026;13.792;2023-05-07T14:44:33;5.38;;;2.67;;
1436;SDS011;712;51.026;13.792;2023-05-07T14:46:58;5.90;;;2.53;;
1436;SDS011;712;51.026;13.792;2023-05-07T14:49:23;6.72;;;3.17;;
1436;SDS011;712;51.026;13.792;2023-05-07T14:51:48;5.80;;;2.88;;
1436;SDS011;712;51.026;13.792;2023-05-07T14:54:13;6.65;;;3.55;;
1436;SDS011;712;51.026;13.792;2023-05-07T14:56:39;5.60;;;3.00;;
1436;SDS011;712;51.026;13.792;2023-05-07T14:59:04;5.63;;;2.80;;
1436;SDS011;712;51.026;13.792;2023-05-07T15:01:30;6.65;;;3.50;;
1436;SDS011;712;51.026;13.792;2023-05-07T15:03:55;6.70;;;3.37;;
1436;SDS011;712;51.026;13.792;2023-05-07T15:06:20;6.17;;;3.43;;
1436;SDS011;712;51.026;13.792;2023-05-07T15:08:46;6.05;;;3.17;;
1436;SDS011;712;51.026;13.792;2023-05-07T15:11:11;5.85;;;3.33;;
1436;SDS011;712;51.026;13.792;2023-05-07T15:13:36;5.80;;;3.50;;
1436;SDS011;712;51.026;13.792;2023-05-07T15:16:01;6.05;;;3.00;;
1436;SDS011;712;51.026;13.792;2023-05-07T15:18:26;6.53;;;3.80;;
1436;SDS011;712;51.026;13.792;2023-05-07T15:20:51;5.83;;;3.47;;